Time;durP1;ratioP1;P1;durP2;ratioP2;P2;SDS_P1;SDS_P2;PMS_P1;PMS_P2;Temp;Humidity;BMP_temperature;BMP_pressure;BME280_temperature;BME280_humidity;BME280_pressure;Samples;Min_cycle;Max_cycle;Signal;HPM_P1;HPM_P2
2022/05/17 00:02:20;;;;;;;17.85;11.18;;;;;;;;;;5033609;28;20052;-38
2022/05/17 00:04:45;;;;;;;19.33;9.93;;;;;;;;;;5032550;28;20022;-37
2022/05/17 00:07:11;;;;;;;15.40;10.65;;;;;;;;;;5032196;28;20045;-37
2022/05/17 00:09:37;;;;;;;23.10;10.63;;;;;;;;;;5033710;28;20052;-37
2022/05/17 00:12:03;;;;;;;25.35;11.45;;;;;;;;;;5033486;28;20033;-37
2022/05/17 00:14:29;;;;;;;17.83;10.32;;;;;;;;;;5032360;28;20028;-37
2022/05/17 00:16:54;;;;;;;15.45;9.15;;;;;;;;;;5033261;28;20376;-38
2022/05/17 00:19:20;;;;;;;19.42;9.50;;;;;;;;;;5033678;28;20021;-38
2022/05/17 00:21:47;;;;;;;19.70;8.90;;;;;;;;;;5033448;28;20025;-37
2022/05/17 00:24:14;;;;;;;18.35;7.93;;;;;;;;;;5033356;28;20021;-37
2022/05/17 00:26:39;;;;;;;15.32;9.32;;;;;;;;;;5032067;28;20495;-38
2022/05/17 00:29:05;;;;;;;16.38;8.60;;;;;;;;;;5031976;28;20116;-37
2022/05/17 00:31:31;;;;;;;19.63;7.93;;;;;;;;;;5032999;28;20075;-38
2022/05/17 00:33:57;;;;;;;12.25;6.85;;;;;;;;;;5033358;28;20022;-37
2022/05/17 00:36:23;;;;;;;14.50;6.93;;;;;;;;;;5033355;28;20037;-38
2022/05/17 00:38:48;;;;;;;12.38;7.03;;;;;;;;;;5033265;28;20075;-37
2022/05/17 00:41:14;;;;;;;10.85;6.45;;;;;;;;;;5032025;28;20025;-37
2022/05/17 00:46:32;;;;;;;19.02;7.32;;;;;;;;;;5033162;28;20057;-38
2022/05/17 00:48:58;;;;;;;13.45;6.30;;;;;;;;;;5032936;28;20033;-37
2022/05/17 00:51:26;;;;;;;12.98;6.65;;;;;;;;;;5031710;28;20090;-37
2022/05/17 00:53:53;;;;;;;14.68;6.75;;;;;;;;;;5033250;28;20021;-37
2022/05/17 00:56:21;;;;;;;10.82;6.57;;;;;;;;;;5031617;28;20449;-37
2022/05/17 00:58:52;;;;;;;12.95;6.28;;;;;;;;;;5032815;28;20554;-37
2022/05/17 01:01:19;;;;;;;13.85;5.47;;;;;;;;;;5031629;28;20017;-37
2022/05/17 01:04:00;;;;;;;7.95;4.80;;;;;;;;;;5033002;28;20021;-37
2022/05/17 01:06:30;;;;;;;13.95;6.25;;;;;;;;;;5032569;28;20151;-38
2022/05/17 01:08:55;;;;;;;;;;;;;;;;;;5031830;28;20029;-37
2022/05/17 01:11:20;;;;;;;10.47;6.57;;;;;;;;;;5032595;28;19920;-37
2022/05/17 01:16:29;;;;;;;13.48;7.10;;;;;;;;;;5032739;28;20133;-37
2022/05/17 01:18:56;;;;;;;13.10;8.30;;;;;;;;;;5032650;28;20049;-37
2022/05/17 01:21:21;;;;;;;13.75;8.43;;;;;;;;;;5032699;28;20026;-37
2022/05/17 01:23:47;;;;;;;17.85;8.52;;;;;;;;;;5032481;28;20018;-38
2022/05/17 01:26:20;;;;;;;14.35;8.40;;;;;;;;;;5031569;28;20530;-38
2022/05/17 01:28:46;;;;;;;14.07;8.20;;;;;;;;;;5031860;28;20034;-37
2022/05/17 01:31:12;;;;;;;13.20;8.95;;;;;;;;;;5032810;28;20117;-38
2022/05/17 01:33:38;;;;;;;12.90;7.70;;;;;;;;;;5032634;28;20025;-37
2022/05/17 01:36:04;;;;;;;12.52;7.50;;;;;;;;;;5032555;28;20033;-37
2022/05/17 01:38:30;;;;;;;11.68;7.93;;;;;;;;;;5032617;28;20024;-38
2022/05/17 01:40:55;;;;;;;14.00;6.60;;;;;;;;;;5032674;28;20021;-38
2022/05/17 01:43:20;;;;;;;14.75;7.13;;;;;;;;;;5031332;28;20053;-38
2022/05/17 01:45:46;;;;;;;11.52;6.80;;;;;;;;;;5032652;28;20435;-38
2022/05/17 01:48:11;;;;;;;11.80;6.68;;;;;;;;;;5032283;28;20029;-38
2022/05/17 01:50:37;;;;;;;10.68;6.50;;;;;;;;;;5031083;28;20046;-38
2022/05/17 01:53:03;;;;;;;13.40;7.43;;;;;;;;;;5032277;28;20026;-38
2022/05/17 01:55:28;;;;;;;15.00;8.02;;;;;;;;;;5032299;28;20101;-38
2022/05/17 01:57:53;;;;;;;11.00;7.00;;;;;;;;;;5032633;28;20315;-38
2022/05/17 02:00:20;;;;;;;14.43;7.55;;;;;;;;;;5032403;28;20029;-37
2022/05/17 02:02:45;;;;;;;14.35;7.90;;;;;;;;;;5031151;28;20381;-37
2022/05/17 02:05:11;;;;;;;14.55;7.53;;;;;;;;;;5034690;28;20025;-37
2022/05/17 02:07:36;;;;;;;10.25;7.45;;;;;;;;;;5034304;28;20509;-38
2022/05/17 02:10:02;;;;;;;17.02;8.25;;;;;;;;;;5036069;28;20473;-37
2022/05/17 02:12:27;;;;;;;13.80;7.00;;;;;;;;;;5035756;28;20456;-38
2022/05/17 02:14:53;;;;;;;13.40;8.23;;;;;;;;;;5034807;28;20029;-38
2022/05/17 02:17:18;;;;;;;12.27;7.78;;;;;;;;;;5035939;28;20033;-38
2022/05/17 02:19:44;;;;;;;16.80;8.88;;;;;;;;;;5035656;28;20025;-38
2022/05/17 02:22:11;;;;;;;14.90;8.70;;;;;;;;;;5035546;28;20461;-37
2022/05/17 02:24:36;;;;;;;10.45;7.82;;;;;;;;;;5035398;28;20437;-38
2022/05/17 02:27:01;;;;;;;12.32;8.50;;;;;;;;;;5035801;28;20036;-37
2022/05/17 02:29:29;;;;;;;13.73;8.70;;;;;;;;;;5035549;28;20028;-38
2022/05/17 02:31:54;;;;;;;17.88;9.43;;;;;;;;;;5035559;28;20063;-37
2022/05/17 02:34:19;;;;;;;14.45;8.38;;;;;;;;;;5035595;28;20021;-37
2022/05/17 02:36:45;;;;;;;11.25;7.47;;;;;;;;;;5035348;28;20028;-37
2022/05/17 02:39:11;;;;;;;13.63;9.20;;;;;;;;;;5035238;28;20303;-38
2022/05/17 02:41:37;;;;;;;13.77;8.52;;;;;;;;;;5034210;28;20021;-38
2022/05/17 02:44:02;;;;;;;13.55;9.68;;;;;;;;;;5035343;28;20033;-38
2022/05/17 02:46:31;;;;;;;18.08;9.23;;;;;;;;;;5035599;28;20030;-38
2022/05/17 02:48:57;;;;;;;;;;;;;;;;;;5035698;28;20024;-38
2022/05/17 02:51:22;;;;;;;13.97;10.33;;;;;;;;;;5035075;28;19920;-37
2022/05/17 02:53:47;;;;;;;17.45;10.60;;;;;;;;;;5035263;28;20341;-38
2022/05/17 02:56:13;;;;;;;21.13;12.68;;;;;;;;;;5035143;28;20033;-38
2022/05/17 02:58:38;;;;;;;42.97;12.40;;;;;;;;;;5033786;28;20059;-37
2022/05/17 03:01:04;;;;;;;44.10;13.70;;;;;;;;;;5033650;28;20075;-37
2022/05/17 03:03:29;;;;;;;20.77;11.07;;;;;;;;;;5034877;28;20104;-37
2022/05/17 03:05:55;;;;;;;17.65;12.00;;;;;;;;;;5034808;28;20061;-37
2022/05/17 03:08:20;;;;;;;18.92;11.88;;;;;;;;;;5033283;28;20092;-37
2022/05/17 03:10:45;;;;;;;18.52;11.77;;;;;;;;;;5033608;28;20034;-38
2022/05/17 03:13:12;;;;;;;23.23;13.95;;;;;;;;;;5034720;28;20028;-37
2022/05/17 03:15:37;;;;;;;24.38;13.60;;;;;;;;;;5034667;28;20032;-37
2022/05/17 03:18:03;;;;;;;24.77;13.82;;;;;;;;;;5034786;28;20051;-37
2022/05/17 03:20:29;;;;;;;27.27;13.88;;;;;;;;;;5034631;28;20036;-37
2022/05/17 03:22:54;;;;;;;22.95;12.68;;;;;;;;;;5033212;28;20398;-37
2022/05/17 03:25:19;;;;;;;30.27;13.57;;;;;;;;;;5034630;28;20055;-38
2022/05/17 03:27:45;;;;;;;19.88;12.48;;;;;;;;;;5034406;28;20024;-37
2022/05/17 03:30:11;;;;;;;26.90;13.30;;;;;;;;;;5033271;28;20033;-37
2022/05/17 03:32:37;;;;;;;25.00;11.48;;;;;;;;;;5032965;28;20063;-37
2022/05/17 03:35:02;;;;;;;16.63;10.55;;;;;;;;;;5034426;28;20052;-37
2022/05/17 03:37:28;;;;;;;42.60;12.05;;;;;;;;;;5034230;28;20412;-38
2022/05/17 03:39:53;;;;;;;19.08;10.70;;;;;;;;;;5032766;28;20419;-37
2022/05/17 03:42:19;;;;;;;17.20;9.68;;;;;;;;;;5032887;28;20021;-38
2022/05/17 03:44:44;;;;;;;20.10;10.52;;;;;;;;;;5033024;28;20017;-37
2022/05/17 03:47:10;;;;;;;22.25;10.77;;;;;;;;;;5032792;28;20032;-38
2022/05/17 03:49:36;;;;;;;22.80;10.52;;;;;;;;;;5033941;28;20029;-37
2022/05/17 03:52:02;;;;;;;14.88;9.90;;;;;;;;;;5033985;28;20096;-38
2022/05/17 03:54:27;;;;;;;26.92;11.30;;;;;;;;;;5032511;28;20443;-38
2022/05/17 03:56:52;;;;;;;19.55;9.73;;;;;;;;;;5034049;28;20040;-38
2022/05/17 03:59:18;;;;;;;17.25;9.85;;;;;;;;;;5032793;28;20112;-38
2022/05/17 04:01:44;;;;;;;19.75;10.02;;;;;;;;;;5032620;28;20448;-38
2022/05/17 04:04:10;;;;;;;17.65;9.68;;;;;;;;;;5033852;28;20445;-38
2022/05/17 04:06:36;;;;;;;19.55;8.90;;;;;;;;;;5033464;28;20600;-38
2022/05/17 04:09:01;;;;;;;17.75;9.35;;;;;;;;;;5033500;28;20100;-38
2022/05/17 04:11:26;;;;;;;17.35;8.77;;;;;;;;;;5033506;28;20033;-38
2022/05/17 04:13:53;;;;;;;18.42;8.02;;;;;;;;;;5033710;28;20053;-38
2022/05/17 04:16:19;;;;;;;13.85;9.27;;;;;;;;;;5033960;28;20027;-38
2022/05/17 04:18:46;;;;;;;15.85;7.78;;;;;;;;;;5033426;28;20350;-38
2022/05/17 04:21:12;;;;;;;13.13;8.02;;;;;;;;;;5033523;28;20017;-38
2022/05/17 04:23:38;;;;;;;17.63;8.70;;;;;;;;;;5033335;28;20113;-38
2022/05/17 04:26:03;;;;;;;14.00;8.50;;;;;;;;;;5033045;28;20032;-38
2022/05/17 04:28:29;;;;;;;17.92;8.40;;;;;;;;;;5033510;28;20040;-38
2022/05/17 04:30:55;;;;;;;11.70;8.13;;;;;;;;;;5033096;28;20037;-38
2022/05/17 04:33:21;;;;;;;13.75;8.43;;;;;;;;;;5033194;28;20057;-38
2022/05/17 04:35:46;;;;;;;14.38;8.52;;;;;;;;;;5033214;28;20051;-38
2022/05/17 04:38:12;;;;;;;16.83;9.45;;;;;;;;;;5032989;28;20022;-38
2022/05/17 04:40:37;;;;;;;13.38;9.23;;;;;;;;;;5033058;28;20045;-38
2022/05/17 04:43:02;;;;;;;17.38;9.43;;;;;;;;;;5032146;28;20029;-38
2022/05/17 04:45:28;;;;;;;19.50;9.30;;;;;;;;;;5031842;28;20071;-38
2022/05/17 04:47:53;;;;;;;18.98;9.73;;;;;;;;;;5033025;28;20021;-38
2022/05/17 04:50:19;;;;;;;17.25;10.38;;;;;;;;;;5032988;28;20445;-38
2022/05/17 04:52:47;;;;;;;16.70;10.25;;;;;;;;;;5031511;28;20053;-39
2022/05/17 04:55:14;;;;;;;15.32;8.82;;;;;;;;;;5031468;28;20025;-37
2022/05/17 04:57:39;;;;;;;16.20;10.10;;;;;;;;;;5032954;28;20080;-38
2022/05/17 05:00:06;;;;;;;13.15;9.15;;;;;;;;;;5031826;28;20033;-38
2022/05/17 05:02:32;;;;;;;14.43;8.85;;;;;;;;;;5031652;28;20021;-38
2022/05/17 05:04:57;;;;;;;10.95;7.85;;;;;;;;;;5033199;28;20021;-38
2022/05/17 05:07:22;;;;;;;13.45;7.45;;;;;;;;;;5031413;28;20137;-39
2022/05/17 05:09:48;;;;;;;11.77;7.63;;;;;;;;;;5031296;28;20080;-38
2022/05/17 05:12:14;;;;;;;17.00;9.18;;;;;;;;;;5033207;28;20047;-38
2022/05/17 05:14:39;;;;;;;19.63;9.27;;;;;;;;;;5032656;28;20112;-38
2022/05/17 05:17:04;;;;;;;15.15;8.23;;;;;;;;;;5031348;28;20025;-38
2022/05/17 05:19:30;;;;;;;14.27;9.25;;;;;;;;;;5032968;28;20453;-38
2022/05/17 05:21:55;;;;;;;14.43;10.27;;;;;;;;;;5032669;28;20022;-38
2022/05/17 05:24:20;;;;;;;18.25;10.13;;;;;;;;;;5032494;28;20018;-38
2022/05/17 05:26:46;;;;;;;14.40;8.95;;;;;;;;;;5032468;28;20075;-38
2022/05/17 05:29:11;;;;;;;20.77;9.38;;;;;;;;;;5031408;28;20071;-38
2022/05/17 05:31:36;;;;;;;19.58;11.13;;;;;;;;;;5032656;28;20118;-38
2022/05/17 05:34:02;;;;;;;21.73;10.93;;;;;;;;;;5032543;28;20018;-38
2022/05/17 05:36:28;;;;;;;23.85;11.57;;;;;;;;;;5033621;28;20025;-38
2022/05/17 05:38:53;;;;;;;22.60;10.85;;;;;;;;;;5052347;28;20033;-38
2022/05/17 05:41:20;;;;;;;23.35;11.52;;;;;;;;;;5049897;28;20028;-37
2022/05/17 05:43:45;;;;;;;26.02;10.75;;;;;;;;;;5055071;28;20028;-37
2022/05/17 05:46:10;;;;;;;19.35;9.77;;;;;;;;;;5043678;28;20354;-37
2022/05/17 05:48:36;;;;;;;19.33;9.35;;;;;;;;;;5040523;28;20471;-37
2022/05/17 05:51:01;;;;;;;15.50;9.45;;;;;;;;;;5041008;28;20082;-38
2022/05/17 05:53:27;;;;;;;22.63;9.45;;;;;;;;;;5045369;28;20472;-38
2022/05/17 05:55:57;;;;;;;20.27;10.15;;;;;;;;;;5036845;28;20025;-37
2022/05/17 05:58:23;;;;;;;15.48;11.27;;;;;;;;;;5045455;28;20025;-37
2022/05/17 06:00:49;;;;;;;15.68;9.90;;;;;;;;;;5042703;28;20021;-38
2022/05/17 06:03:14;;;;;;;18.45;10.45;;;;;;;;;;5039452;28;20523;-37
2022/05/17 06:05:39;;;;;;;21.52;10.95;;;;;;;;;;5049919;28;20480;-37
2022/05/17 06:08:05;;;;;;;25.27;10.10;;;;;;;;;;5034131;28;20116;-37
2022/05/17 06:10:31;;;;;;;24.92;10.32;;;;;;;;;;5049152;28;20078;-38
2022/05/17 06:12:57;;;;;;;22.13;10.27;;;;;;;;;;5044734;28;20021;-37
2022/05/17 06:15:22;;;;;;;17.80;9.73;;;;;;;;;;5048089;28;20112;-38
2022/05/17 06:17:49;;;;;;;17.42;9.00;;;;;;;;;;5052502;28;20024;-37
2022/05/17 06:20:17;;;;;;;21.13;10.85;;;;;;;;;;5036569;28;20536;-39
2022/05/17 06:22:44;;;;;;;33.60;15.50;;;;;;;;;;5037645;28;20573;-37
2022/05/17 06:25:09;;;;;;;16.50;10.40;;;;;;;;;;5035589;28;20032;-40
2022/05/17 06:27:35;;;;;;;34.33;14.63;;;;;;;;;;5047062;28;20029;-37
2022/05/17 06:30:00;;;;;;;28.38;11.15;;;;;;;;;;5035760;28;20400;-37
2022/05/17 06:32:26;;;;;;;46.42;11.35;;;;;;;;;;5054890;28;20029;-37
2022/05/17 06:34:51;;;;;;;17.80;9.88;;;;;;;;;;5052100;28;20384;-37
2022/05/17 06:37:16;;;;;;;17.65;10.48;;;;;;;;;;5049090;28;20116;-37
2022/05/17 06:39:42;;;;;;;44.08;12.13;;;;;;;;;;5038759;28;20017;-38
2022/05/17 06:42:08;;;;;;;27.13;9.07;;;;;;;;;;5042105;28;20028;-38
2022/05/17 06:44:33;;;;;;;24.15;10.32;;;;;;;;;;5050463;28;20021;-39
2022/05/17 06:46:59;;;;;;;22.20;10.38;;;;;;;;;;5049413;28;20028;-38
2022/05/17 06:49:26;;;;;;;16.52;8.90;;;;;;;;;;5046554;28;20017;-38
2022/05/17 06:51:52;;;;;;;23.25;11.60;;;;;;;;;;5053648;28;20033;-39
2022/05/17 06:54:18;;;;;;;26.67;10.38;;;;;;;;;;5033728;28;20569;-39
2022/05/17 06:56:43;;;;;;;16.67;9.20;;;;;;;;;;5037222;28;20025;-39
2022/05/17 06:59:09;;;;;;;18.13;9.73;;;;;;;;;;5051766;28;20527;-38
2022/05/17 07:01:34;;;;;;;18.63;9.50;;;;;;;;;;5052545;28;20367;-38
2022/05/17 07:04:00;;;;;;;16.25;9.00;;;;;;;;;;5045147;28;20013;-39
2022/05/17 07:06:25;;;;;;;14.85;8.63;;;;;;;;;;5035175;28;20404;-38
2022/05/17 07:08:51;;;;;;;19.55;9.85;;;;;;;;;;5034203;28;20431;-38
2022/05/17 07:14:00;;;;;;;17.08;10.65;;;;;;;;;;5045143;28;20074;-39
2022/05/17 07:16:25;;;;;;;18.45;10.95;;;;;;;;;;5049347;28;20104;-39
2022/05/17 07:18:51;;;;;;;16.50;10.27;;;;;;;;;;5048772;28;20030;-38
2022/05/17 07:21:16;;;;;;;17.67;9.20;;;;;;;;;;5049374;28;20028;-37
2022/05/17 07:23:42;;;;;;;17.60;10.57;;;;;;;;;;5041377;28;20025;-38
2022/05/17 07:26:08;;;;;;;36.40;10.10;;;;;;;;;;5044585;28;20508;-37
2022/05/17 07:28:38;;;;;;;23.50;9.90;;;;;;;;;;5039804;28;20066;-38
2022/05/17 07:31:03;;;;;;;35.92;27.10;;;;;;;;;;5053958;28;20468;-38
2022/05/17 07:33:29;;;;;;;13.25;8.90;;;;;;;;;;5040714;28;20033;-37
2022/05/17 07:35:54;;;;;;;16.17;9.15;;;;;;;;;;5048258;28;20067;-37
2022/05/17 07:38:19;;;;;;;15.60;8.85;;;;;;;;;;5052690;28;20028;-37
2022/05/17 07:40:45;;;;;;;17.10;8.27;;;;;;;;;;5052312;28;20461;-38
2022/05/17 07:43:11;;;;;;;13.88;8.15;;;;;;;;;;5053292;28;20017;-38
2022/05/17 07:45:36;;;;;;;10.82;8.15;;;;;;;;;;5040727;28;20447;-38
2022/05/17 07:48:02;;;;;;;14.57;8.20;;;;;;;;;;5046350;28;20021;-38
2022/05/17 07:50:28;;;;;;;10.75;8.38;;;;;;;;;;5038662;28;20041;-38
2022/05/17 07:52:53;;;;;;;17.42;8.05;;;;;;;;;;5039911;28;20063;-38
2022/05/17 07:55:19;;;;;;;18.95;7.38;;;;;;;;;;5034063;28;20373;-37
2022/05/17 07:57:44;;;;;;;14.75;6.82;;;;;;;;;;5039916;28;20057;-41
2022/05/17 08:00:10;;;;;;;21.67;8.02;;;;;;;;;;5045864;28;20396;-37
2022/05/17 08:02:35;;;;;;;11.60;7.45;;;;;;;;;;5041664;28;20021;-40
2022/05/17 08:05:01;;;;;;;17.38;8.15;;;;;;;;;;5044957;28;20021;-37
2022/05/17 08:07:26;;;;;;;13.15;7.75;;;;;;;;;;5035989;28;20057;-36
2022/05/17 08:09:52;;;;;;;23.70;12.77;;;;;;;;;;5048041;28;20673;-37
2022/05/17 08:12:17;;;;;;;13.57;7.60;;;;;;;;;;5048475;28;20025;-37
2022/05/17 08:14:44;;;;;;;12.48;7.70;;;;;;;;;;5039140;28;20029;-42
2022/05/17 08:17:10;;;;;;;14.90;6.78;;;;;;;;;;5037298;28;20025;-37
2022/05/17 08:19:38;;;;;;;8.75;6.45;;;;;;;;;;5033765;28;20025;-37
2022/05/17 08:22:04;;;;;;;;;;;;;;;;;;5034928;28;20025;-37
2022/05/17 08:27:31;;;;;;;15.43;6.67;;;;;;;;;;5049609;28;19904;-37
2022/05/17 08:27:36;;;;;;;13.13;6.25;;;;;;;;;;5050182;28;20336;-37
2022/05/17 08:30:05;;;;;;;10.65;5.80;;;;;;;;;;5040774;28;20396;-36
2022/05/17 08:35:14;;;;;;;9.65;5.90;;;;;;;;;;5039160;28;20043;-38
2022/05/17 08:37:39;;;;;;;11.73;6.30;;;;;;;;;;5035640;28;20025;-36
2022/05/17 08:40:05;;;;;;;12.98;7.00;;;;;;;;;;5037997;28;20045;-36
2022/05/17 08:42:36;;;;;;;15.77;7.63;;;;;;;;;;5032886;28;20071;-36
2022/05/17 08:45:04;;;;;;;12.27;7.70;;;;;;;;;;5056612;28;20020;-38
2022/05/17 08:47:30;;;;;;;10.88;5.60;;;;;;;;;;5052160;28;20025;-36
2022/05/17 08:49:57;;;;;;;9.57;4.80;;;;;;;;;;5035380;28;20071;-37
2022/05/17 08:52:24;;;;;;;11.82;5.05;;;;;;;;;;5046352;28;20033;-37
2022/05/17 08:54:59;;;;;;;10.90;5.20;;;;;;;;;;5035866;28;20451;-37
2022/05/17 08:57:28;;;;;;;39.83;18.38;;;;;;;;;;5038233;28;20037;-36
2022/05/17 08:59:54;;;;;;;11.15;5.40;;;;;;;;;;5052132;28;20029;-37
2022/05/17 09:02:19;;;;;;;11.70;4.75;;;;;;;;;;5042998;28;20032;-36
2022/05/17 09:04:45;;;;;;;6.57;4.30;;;;;;;;;;5047487;28;20353;-38
2022/05/17 09:07:16;;;;;;;7.30;4.07;;;;;;;;;;5041499;28;20103;-37
2022/05/17 09:09:48;;;;;;;9.73;4.55;;;;;;;;;;5049463;28;20633;-37
2022/05/17 09:12:32;;;;;;;9.00;4.88;;;;;;;;;;5041476;28;20044;-38
2022/05/17 09:14:59;;;;;;;10.38;5.43;;;;;;;;;;5038361;28;20029;-38
2022/05/17 09:17:26;;;;;;;29.27;17.95;;;;;;;;;;5044253;28;20096;-39
2022/05/17 09:19:52;;;;;;;23.70;13.68;;;;;;;;;;5037670;28;20021;-39
2022/05/17 09:22:18;;;;;;;13.98;5.82;;;;;;;;;;5056628;28;20361;-38
2022/05/17 09:24:44;;;;;;;12.95;4.07;;;;;;;;;;5039867;28;20040;-37
2022/05/17 09:27:22;;;;;;;13.70;4.90;;;;;;;;;;5057923;28;20025;-38
2022/05/17 09:29:49;;;;;;;8.43;4.68;;;;;;;;;;5041213;28;20033;-37
2022/05/17 09:32:25;;;;;;;46.53;7.90;;;;;;;;;;5037973;28;20663;-38
2022/05/17 09:35:10;;;;;;;9.00;5.32;;;;;;;;;;5046054;28;20029;-38
2022/05/17 09:37:41;;;;;;;9.27;4.22;;;;;;;;;;5040534;28;20640;-38
2022/05/17 09:40:08;;;;;;;14.07;4.57;;;;;;;;;;5048597;28;20029;-39
2022/05/17 09:42:53;;;;;;;10.30;4.13;;;;;;;;;;5038154;28;20087;-38
2022/05/17 09:45:19;;;;;;;8.50;4.50;;;;;;;;;;5038167;28;20056;-38
2022/05/17 09:47:58;;;;;;;5.15;3.45;;;;;;;;;;5045085;28;20025;-37
2022/05/17 09:53:14;;;;;;;8.60;4.28;;;;;;;;;;5052316;28;20052;-38
2022/05/17 09:55:43;;;;;;;13.10;4.85;;;;;;;;;;5046758;28;20028;-38
2022/05/17 09:58:10;;;;;;;12.70;4.22;;;;;;;;;;5030025;28;20053;-37
2022/05/17 10:00:41;;;;;;;9.15;3.70;;;;;;;;;;5038133;28;20471;-37
2022/05/17 10:03:12;;;;;;;8.52;4.70;;;;;;;;;;5040748;28;20232;-39
2022/05/17 10:05:41;;;;;;;6.20;3.95;;;;;;;;;;5044601;28;20070;-39
2022/05/17 10:08:12;;;;;;;8.38;4.25;;;;;;;;;;5036801;28;20053;-38
2022/05/17 10:10:45;;;;;;;15.32;4.70;;;;;;;;;;5038132;28;22438;-38
2022/05/17 10:13:28;;;;;;;10.98;4.43;;;;;;;;;;5038411;28;20034;-38
2022/05/17 10:15:56;;;;;;;8.00;4.35;;;;;;;;;;5051666;28;20076;-37
2022/05/17 10:18:41;;;;;;;12.27;5.73;;;;;;;;;;5038131;28;20025;-37
2022/05/17 10:21:23;;;;;;;10.85;4.38;;;;;;;;;;5037445;28;20028;-41
2022/05/17 10:24:07;;;;;;;13.40;4.60;;;;;;;;;;5036608;28;20021;-37
2022/05/17 10:26:36;;;;;;;7.72;3.97;;;;;;;;;;5042632;28;20052;-37
2022/05/17 10:29:05;;;;;;;8.10;4.10;;;;;;;;;;5033394;28;20504;-40
2022/05/17 10:31:53;;;;;;;7.90;4.30;;;;;;;;;;5032405;28;20550;-37
2022/05/17 10:34:25;;;;;;;53.58;12.55;;;;;;;;;;5041626;28;20040;-38
2022/05/17 10:36:54;;;;;;;13.43;5.20;;;;;;;;;;5045770;28;20124;-37
2022/05/17 10:39:33;;;;;;;27.95;6.97;;;;;;;;;;5041745;28;20029;-38
2022/05/17 10:41:59;;;;;;;27.58;7.57;;;;;;;;;;5050906;28;20499;-37
2022/05/17 10:44:26;;;;;;;28.25;11.60;;;;;;;;;;5035444;28;20038;-38
2022/05/17 10:46:55;;;;;;;8.50;4.68;;;;;;;;;;5045358;28;20535;-37
2022/05/17 10:49:44;;;;;;;27.98;7.25;;;;;;;;;;5044236;28;20387;-38
2022/05/17 10:52:13;;;;;;;28.77;9.88;;;;;;;;;;5048513;28;20083;-38
2022/05/17 10:54:50;;;;;;;15.48;6.25;;;;;;;;;;5040293;28;20029;-38
2022/05/17 10:57:31;;;;;;;10.18;4.00;;;;;;;;;;5047032;28;20021;-38
2022/05/17 11:00:14;;;;;;;11.93;6.43;;;;;;;;;;5033260;28;20380;-42
2022/05/17 11:02:54;;;;;;;10.48;4.90;;;;;;;;;;5045434;28;20022;-38
2022/05/17 11:05:38;;;;;;;23.65;4.95;;;;;;;;;;5039606;28;20029;-40
2022/05/17 11:08:13;;;;;;;19.40;6.35;;;;;;;;;;5040958;28;20055;-38
2022/05/17 11:10:42;;;;;;;35.90;7.53;;;;;;;;;;5034238;28;20087;-38
2022/05/17 11:13:10;;;;;;;16.15;8.82;;;;;;;;;;5049829;28;20467;-38
2022/05/17 11:15:38;;;;;;;45.28;19.45;;;;;;;;;;5046547;28;20024;-38
2022/05/17 11:18:16;;;;;;;63.55;27.25;;;;;;;;;;5051113;28;20032;-37
2022/05/17 11:20:47;;;;;;;14.98;5.15;;;;;;;;;;5038495;28;20056;-38
2022/05/17 11:23:31;;;;;;;44.30;6.55;;;;;;;;;;5048255;28;20488;-38
2022/05/17 11:26:03;;;;;;;8.77;3.60;;;;;;;;;;5038261;28;20108;-39
2022/05/17 11:28:45;;;;;;;10.95;3.15;;;;;;;;;;5041846;28;20036;-38
2022/05/17 11:31:16;;;;;;;6.05;3.47;;;;;;;;;;5038241;28;20042;-38
2022/05/17 11:33:41;;;;;;;6.70;3.17;;;;;;;;;;5035980;28;20025;-38
2022/05/17 11:36:33;;;;;;;6.38;3.05;;;;;;;;;;5040422;28;20024;-38
2022/05/17 11:38:59;;;;;;;7.55;2.83;;;;;;;;;;5041037;28;20104;-38
2022/05/17 11:41:34;;;;;;;15.95;3.50;;;;;;;;;;5034471;28;20096;-37
2022/05/17 11:44:05;;;;;;;5.15;2.70;;;;;;;;;;5040428;28;20025;-38
2022/05/17 11:46:31;;;;;;;8.90;3.10;;;;;;;;;;5038057;28;20028;-38
2022/05/17 11:49:01;;;;;;;11.13;3.17;;;;;;;;;;5034322;28;20389;-39
2022/05/17 11:51:32;;;;;;;9.70;4.20;;;;;;;;;;5042818;28;20052;-38
2022/05/17 11:53:57;;;;;;;7.07;4.15;;;;;;;;;;5033549;28;20034;-39
2022/05/17 11:56:25;;;;;;;22.95;7.05;;;;;;;;;;5033020;28;20031;-39
2022/05/17 11:58:52;;;;;;;13.48;5.90;;;;;;;;;;5032483;28;20025;-39
2022/05/17 12:01:30;;;;;;;9.73;4.75;;;;;;;;;;5035828;28;20056;-41
2022/05/17 12:07:25;;;;;;;6.95;3.03;;;;;;;;;;5019324;28;20638;-34
2022/05/17 12:09:55;;;;;;;6.70;3.40;;;;;;;;;;5018786;28;20088;-34
2022/05/17 12:12:23;;;;;;;7.78;2.85;;;;;;;;;;5018917;28;20087;-34
2022/05/17 12:15:03;;;;;;;8.30;2.90;;;;;;;;;;5014899;28;20021;-34
2022/05/17 12:17:44;;;;;;;5.60;2.95;;;;;;;;;;5023699;28;20060;-35
2022/05/17 12:20:12;;;;;;;12.50;3.45;;;;;;;;;;5005134;28;20547;-36
2022/05/17 12:22:48;;;;;;;19.40;4.00;;;;;;;;;;5013344;28;20414;-35
2022/05/17 12:25:13;;;;;;;8.77;3.40;;;;;;;;;;5038866;28;20025;-35
2022/05/17 12:27:43;;;;;;;8.50;3.42;;;;;;;;;;5024433;28;20026;-35
2022/05/17 12:33:04;;;;;;;10.73;3.95;;;;;;;;;;5022712;28;20032;-32
2022/05/17 12:35:30;;;;;;;11.30;3.47;;;;;;;;;;5000215;28;20064;-33
2022/05/17 12:37:56;;;;;;;10.82;3.58;;;;;;;;;;5017620;28;20037;-44
2022/05/17 12:43:23;;;;;;;7.20;3.38;;;;;;;;;;5022565;28;20048;-44
2022/05/17 12:45:49;;;;;;;6.10;3.35;;;;;;;;;;5003844;28;20036;-49
2022/05/17 12:48:32;;;;;;;20.95;4.60;;;;;;;;;;5020611;28;20437;-42
2022/05/17 12:51:00;;;;;;;8.70;3.95;;;;;;;;;;5007389;28;20445;-44
2022/05/17 12:53:29;;;;;;;6.90;3.08;;;;;;;;;;5012743;28;20026;-42
2022/05/17 12:56:00;;;;;;;5.55;3.33;;;;;;;;;;5029579;28;20459;-42
2022/05/17 12:58:25;;;;;;;5.53;3.55;;;;;;;;;;5021315;28;20071;-47
2022/05/17 13:00:55;;;;;;;7.18;3.30;;;;;;;;;;5022932;28;20030;-43
2022/05/17 13:03:23;;;;;;;7.47;3.33;;;;;;;;;;5019667;28;20033;-42
2022/05/17 13:05:51;;;;;;;6.25;4.05;;;;;;;;;;5038355;28;20049;-43
2022/05/17 13:08:36;;;;;;;7.40;4.00;;;;;;;;;;5047899;28;20714;-43
2022/05/17 13:11:07;;;;;;;7.93;3.38;;;;;;;;;;5044420;28;20033;-42
2022/05/17 13:13:34;;;;;;;4.05;3.63;;;;;;;;;;5024123;28;20136;-43
2022/05/17 13:16:05;;;;;;;7.15;2.95;;;;;;;;;;5027575;28;22370;-45
2022/05/17 13:18:57;;;;;;;4.25;3.00;;;;;;;;;;5030539;28;20056;-43
2022/05/17 13:21:24;;;;;;;7.57;2.90;;;;;;;;;;5023648;28;20040;-46
2022/05/17 13:23:51;;;;;;;6.40;3.25;;;;;;;;;;5048598;28;20039;-44
2022/05/17 13:26:23;;;;;;;6.35;3.35;;;;;;;;;;5052210;28;20105;-44
2022/05/17 13:28:49;;;;;;;10.18;3.80;;;;;;;;;;5053187;28;20036;-46
2022/05/17 13:31:18;;;;;;;9.85;3.63;;;;;;;;;;5031150;28;20033;-43
2022/05/17 13:33:56;;;;;;;7.65;3.65;;;;;;;;;;5049201;28;20044;-40
2022/05/17 13:36:32;;;;;;;8.85;3.60;;;;;;;;;;5032523;28;20024;-42
2022/05/17 13:38:57;;;;;;;7.32;3.17;;;;;;;;;;5050702;28;20029;-41
2022/05/17 13:41:30;;;;;;;7.68;3.22;;;;;;;;;;5051472;28;20497;-43
2022/05/17 13:44:00;;;;;;;5.25;3.60;;;;;;;;;;5051303;28;20044;-43
2022/05/17 13:46:29;;;;;;;7.22;3.60;;;;;;;;;;5051799;28;20024;-41
2022/05/17 13:49:02;;;;;;;8.73;3.70;;;;;;;;;;5051118;28;20466;-43
2022/05/17 13:51:42;;;;;;;8.80;4.38;;;;;;;;;;5050618;28;20091;-37
2022/05/17 13:54:26;;;;;;;8.45;3.53;;;;;;;;;;5031945;28;20048;-42
2022/05/17 13:56:53;;;;;;;8.30;4.18;;;;;;;;;;5035609;28;20021;-44
2022/05/17 13:59:19;;;;;;;9.93;4.53;;;;;;;;;;5052074;28;20062;-43
2022/05/17 14:01:53;;;;;;;8.90;4.53;;;;;;;;;;5055471;28;20021;-43
2022/05/17 14:04:27;;;;;;;6.38;4.03;;;;;;;;;;5037460;28;20032;-42
2022/05/17 14:06:57;;;;;;;10.93;4.68;;;;;;;;;;5055033;28;20114;-42
2022/05/17 14:12:13;;;;;;;11.68;4.80;;;;;;;;;;5054893;28;20087;-45
2022/05/17 14:14:40;;;;;;;8.20;5.57;;;;;;;;;;5055292;28;20021;-43
2022/05/17 14:17:10;;;;;;;11.32;5.80;;;;;;;;;;5054968;28;20399;-44
2022/05/17 14:19:35;;;;;;;22.35;5.85;;;;;;;;;;5036649;28;20101;-43
2022/05/17 14:22:03;;;;;;;10.07;5.78;;;;;;;;;;5036926;28;20025;-43
2022/05/17 14:24:29;;;;;;;11.02;5.43;;;;;;;;;;5034245;28;20127;-43
2022/05/17 14:26:55;;;;;;;11.25;5.35;;;;;;;;;;5033261;28;20523;-41
2022/05/17 14:29:22;;;;;;;7.93;4.45;;;;;;;;;;5045980;28;20107;-43
2022/05/17 14:31:48;;;;;;;16.55;5.72;;;;;;;;;;5047403;28;20123;-44
2022/05/17 14:34:15;;;;;;;11.25;6.28;;;;;;;;;;5044034;28;20090;-44
2022/05/17 14:36:41;;;;;;;13.20;6.53;;;;;;;;;;5035691;28;20020;-44
2022/05/17 14:39:06;;;;;;;17.23;6.35;;;;;;;;;;5031806;28;20064;-45
2022/05/17 14:41:32;;;;;;;9.32;5.68;;;;;;;;;;5053159;28;20056;-44
2022/05/17 14:43:58;;;;;;;12.80;7.22;;;;;;;;;;5036140;28;20474;-43
2022/05/17 14:46:23;;;;;;;14.35;6.85;;;;;;;;;;5035790;28;20013;-44
2022/05/17 14:48:49;;;;;;;9.38;6.45;;;;;;;;;;5035680;28;20068;-44
2022/05/17 14:51:22;;;;;;;12.85;6.35;;;;;;;;;;5035361;28;20136;-43
2022/05/17 14:53:47;;;;;;;17.48;7.55;;;;;;;;;;5053868;28;20021;-43
2022/05/17 14:56:12;;;;;;;21.20;8.90;;;;;;;;;;5054140;28;20412;-42
2022/05/17 14:58:38;;;;;;;11.43;8.38;;;;;;;;;;5054130;28;20040;-42
2022/05/17 15:01:04;;;;;;;14.90;7.55;;;;;;;;;;5036235;28;20020;-42
2022/05/17 15:03:34;;;;;;;15.65;8.05;;;;;;;;;;5054888;28;20479;-44